Time;durP1;ratioP1;P1;durP2;ratioP2;P2;SDS_P1;SDS_P2;PMS_P1;PMS_P2;Temp;Humidity;BMP_temperature;BMP_pressure;BME280_temperature;BME280_humidity;BME280_pressure;Samples;Min_cycle;Max_cycle;Signal;HPM_P1;HPM_P2
2023/09/15 00:07:05;;;;;;;5.90;2.10;;;;;;;15.01;100.00;97962.16;18546145;32;20045;-56
2023/09/15 00:17:07;;;;;;;5.72;1.80;;;;;;;14.93;100.00;97960.88;18544863;32;20048;-56
2023/09/15 00:27:09;;;;;;;3.95;1.80;;;;;;;14.86;100.00;97952.25;18559791;32;20063;-57
2023/09/15 00:37:12;;;;;;;2.87;1.98;;;;;;;14.76;100.00;97947.75;18544470;32;20412;-56
2023/09/15 00:47:15;;;;;;;4.95;1.90;;;;;;;14.65;100.00;97938.06;18558945;32;20084;-57
2023/09/15 00:57:18;;;;;;;2.75;1.70;;;;;;;14.46;100.00;97940.69;18558771;32;20119;-57
2023/09/15 01:07:20;;;;;;;4.03;2.08;;;;;;;14.35;100.00;97950.91;18558514;32;20156;-57
2023/09/15 01:17:29;;;;;;;6.35;2.03;;;;;;;14.26;100.00;97947.97;18569560;32;20095;-57
2023/09/15 01:27:39;;;;;;;4.82;1.85;;;;;;;14.15;100.00;97935.59;18569421;31;20456;-56
2023/09/15 01:37:42;;;;;;;5.12;2.12;;;;;;;14.01;100.00;97932.72;18568311;32;20053;-56
2023/09/15 01:47:48;;;;;;;5.07;1.95;;;;;;;13.89;100.00;97923.03;18553625;32;20045;-57
2023/09/15 01:57:51;;;;;;;3.60;1.77;;;;;;;13.83;100.00;97907.06;18553044;32;20084;-57
2023/09/15 02:07:53;;;;;;;3.17;1.90;;;;;;;13.75;100.00;97910.41;18566508;32;20061;-57
2023/09/15 02:17:58;;;;;;;3.92;2.20;;;;;;;13.70;100.00;97920.22;18551660;32;20074;-57
2023/09/15 02:28:02;;;;;;;6.95;2.05;;;;;;;13.61;100.00;97926.50;18565059;32;20080;-57
2023/09/15 02:38:04;;;;;;;5.82;1.80;;;;;;;13.53;100.00;97942.34;18564438;32;20052;-59
2023/09/15 02:48:07;;;;;;;4.28;1.85;;;;;;;13.45;100.00;97923.91;18564197;32;20086;-59
2023/09/15 02:58:09;;;;;;;4.12;2.03;;;;;;;13.36;100.00;97923.72;18563334;32;20113;-59
2023/09/15 03:08:14;;;;;;;3.08;2.12;;;;;;;13.33;100.00;97918.00;18562930;32;20079;-59
2023/09/15 03:18:17;;;;;;;;;;;;;;;13.35;100.00;97913.09;18548587;32;20116;-59
2023/09/15 03:28:19;;;;;;;4.50;1.75;;;;;;;13.36;100.00;97912.84;18562660;32;19944;-59
2023/09/15 03:38:22;;;;;;;2.65;1.92;;;;;;;13.46;100.00;97914.69;18546547;32;20052;-59
2023/09/15 03:48:24;;;;;;;4.28;1.92;;;;;;;13.55;100.00;97918.44;18561372;32;20037;-59
2023/09/15 03:58:28;;;;;;;5.78;1.98;;;;;;;13.66;100.00;97913.72;18560591;32;20380;-57
2023/09/15 04:08:30;;;;;;;3.78;1.60;;;;;;;13.76;100.00;97917.44;18560146;31;20072;-56
2023/09/15 04:18:32;;;;;;;3.67;1.40;;;;;;;13.79;100.00;97925.84;18559867;32;20049;-56
2023/09/15 04:28:35;;;;;;;2.65;1.98;;;;;;;13.87;100.00;97919.78;18559606;32;20334;-56
2023/09/15 04:38:37;;;;;;;2.60;1.80;;;;;;;13.93;100.00;97908.88;18559005;32;20045;-56
2023/09/15 04:48:40;;;;;;;3.03;1.60;;;;;;;13.95;100.00;97912.09;18568008;32;20481;-56
2023/09/15 04:58:45;;;;;;;4.37;1.80;;;;;;;14.03;100.00;97925.06;18556823;32;20095;-57
2023/09/15 05:08:48;;;;;;;2.80;2.00;;;;;;;14.01;100.00;97930.81;18556590;32;20045;-56
2023/09/15 05:18:50;;;;;;;5.22;2.22;;;;;;;14.11;100.00;97939.97;18542560;32;20056;-56
2023/09/15 05:28:53;;;;;;;2.75;1.95;;;;;;;14.12;100.00;97950.56;18555064;32;20076;-56
2023/09/15 05:38:55;;;;;;;3.78;1.95;;;;;;;14.23;100.00;97945.84;18553710;32;20048;-57
2023/09/15 05:48:58;;;;;;;6.90;2.00;;;;;;;14.35;100.00;97945.47;18553809;32;20052;-56
2023/09/15 05:59:01;;;;;;;4.05;2.22;;;;;;;14.45;100.00;97950.78;18566604;31;20449;-56
2023/09/15 06:09:04;;;;;;;3.40;2.50;;;;;;;14.49;100.00;97951.81;18552467;32;20068;-57
2023/09/15 06:19:07;;;;;;;4.53;2.85;;;;;;;14.43;100.00;97953.00;18566340;32;20053;-57
2023/09/15 06:29:12;;;;;;;7.00;3.58;;;;;;;14.44;100.00;97957.31;18565436;32;20048;-57
2023/09/15 06:39:15;;;;;;;7.00;3.65;;;;;;;14.44;100.00;97948.34;18550842;32;20478;-56
2023/09/15 06:49:21;;;;;;;8.20;3.62;;;;;;;14.35;100.00;97942.72;18537299;32;20045;-57
2023/09/15 06:59:24;;;;;;;5.85;3.47;;;;;;;14.32;100.00;97952.28;18563308;32;20064;-57
2023/09/15 07:09:27;;;;;;;9.27;3.62;;;;;;;14.49;100.00;97951.81;18562691;32;20444;-56
2023/09/15 07:19:30;;;;;;;6.80;3.25;;;;;;;14.56;100.00;97952.28;18548281;32;20488;-56
2023/09/15 07:29:33;;;;;;;5.37;3.33;;;;;;;14.81;100.00;97953.13;18561805;32;20057;-56
2023/09/15 07:39:36;;;;;;;5.53;3.33;;;;;;;15.10;100.00;97949.47;18561083;32;20372;-57
2023/09/15 07:49:38;;;;;;;6.90;3.75;;;;;;;15.54;100.00;97942.87;18560682;32;20504;-57
2023/09/15 07:59:41;;;;;;;5.57;3.15;;;;;;;15.93;100.00;97944.47;18546713;32;20104;-57
2023/09/15 08:09:44;;;;;;;5.93;4.10;;;;;;;16.29;100.00;97939.50;18545452;32;20053;-57
2023/09/15 08:19:47;;;;;;;6.78;3.25;;;;;;;16.49;100.00;97930.13;18564313;32;20476;-56
2023/09/15 08:29:50;;;;;;;6.00;3.33;;;;;;;16.54;100.00;97930.84;18572857;32;20097;-57
2023/09/15 08:39:54;;;;;;;9.55;4.87;;;;;;;16.60;100.00;97918.69;18557545;32;20082;-57
2023/09/15 08:50:03;;;;;;;10.95;5.65;;;;;;;16.92;100.00;97917.00;18571087;32;20064;-57
2023/09/15 09:00:08;;;;;;;7.50;4.85;;;;;;;17.25;100.00;97916.00;18571031;32;20053;-57
2023/09/15 09:10:11;;;;;;;5.55;4.43;;;;;;;17.64;100.00;97908.28;18570146;32;20100;-57
2023/09/15 09:20:28;;;;;;;11.10;4.95;;;;;;;18.05;100.00;97899.91;18555555;32;20105;-57
2023/09/15 09:30:31;;;;;;;12.25;6.35;;;;;;;18.47;100.00;97894.12;18568272;32;20053;-57
2023/09/15 09:40:36;;;;;;;15.23;9.30;;;;;;;18.89;100.00;97902.81;18567904;31;20076;-57
2023/09/15 09:50:42;;;;;;;12.20;8.68;;;;;;;19.36;100.00;97885.78;18567585;32;20097;-57
2023/09/15 10:00:48;;;;;;;9.97;7.37;;;;;;;19.71;100.00;97884.97;18553196;32;20049;-57
2023/09/15 10:10:52;;;;;;;11.12;8.00;;;;;;;20.12;100.00;97872.63;18566614;32;20150;-57
2023/09/15 10:20:56;;;;;;;10.88;8.23;;;;;;;20.42;100.00;97859.75;18565940;32;20364;-57
2023/09/15 10:31:00;;;;;;;11.38;7.37;;;;;;;20.68;100.00;97850.59;18565400;32;20082;-57
2023/09/15 10:41:06;;;;;;;;;;;;;;;20.90;100.00;97849.50;18550572;32;20056;-57
2023/09/15 10:51:10;;;;;;;7.87;6.82;;;;;;;21.18;100.00;97851.69;18564960;32;19999;-57
2023/09/15 11:01:15;;;;;;;7.50;6.05;;;;;;;21.35;100.00;97844.44;18563314;32;20068;-57
2023/09/15 11:11:18;;;;;;;7.60;6.20;;;;;;;21.79;100.00;97831.91;18548853;32;20365;-57
2023/09/15 11:21:22;;;;;;;;;;;;;;;22.18;100.00;97815.09;18562560;32;20057;-57
2023/09/15 11:31:25;;;;;;;;;;;;;;;22.08;100.00;97810.84;18562520;32;19944;-57
2023/09/15 11:41:35;;;;;;;6.37;5.53;;;;;;;22.06;100.00;97806.84;18546829;32;19981;-57
2023/09/15 11:51:38;;;;;;;6.10;5.43;;;;;;;22.56;100.00;97794.72;18560844;32;20462;-57
2023/09/15 12:01:42;;;;;;;5.57;5.07;;;;;;;22.68;100.00;97788.38;18546634;32;20063;-57
2023/09/15 12:11:46;;;;;;;8.27;5.95;;;;;;;22.68;100.00;97778.16;18545714;32;20444;-57
2023/09/15 12:21:53;;;;;;;6.93;5.50;;;;;;;22.62;100.00;97773.22;18559808;32;20449;-56
2023/09/15 12:31:56;;;;;;;6.10;5.10;;;;;;;22.64;100.00;97755.19;18559647;32;20048;-57
2023/09/15 12:42:04;;;;;;;5.85;5.25;;;;;;;22.85;100.00;97751.47;18559207;32;20060;-57
2023/09/15 12:52:10;;;;;;;5.28;4.45;;;;;;;22.92;100.00;97737.87;18544823;32;20128;-57
2023/09/15 13:02:13;;;;;;;6.30;4.72;;;;;;;23.15;100.00;97729.09;18558839;32;20452;-57
2023/09/15 13:12:16;;;;;;;7.55;5.00;;;;;;;23.39;100.00;97711.59;18569999;32;20097;-57
2023/09/15 13:22:20;;;;;;;7.55;6.50;;;;;;;23.98;100.00;97700.84;18569768;32;20056;-58
2023/09/15 13:32:28;;;;;;;8.23;6.03;;;;;;;24.16;100.00;97682.75;18555316;32;20113;-57
2023/09/15 13:42:34;;;;;;;5.75;5.15;;;;;;;24.18;100.00;97674.09;18568154;32;20052;-57
2023/09/15 13:52:36;;;;;;;6.60;5.35;;;;;;;24.24;100.00;97661.59;18568330;32;20041;-57
2023/09/15 14:02:42;;;;;;;6.87;5.68;;;;;;;24.40;100.00;97652.47;18567413;32;20105;-57
2023/09/15 14:12:45;;;;;;;5.80;5.20;;;;;;;24.80;100.00;97646.59;18566784;31;20037;-57
2023/09/15 14:22:48;;;;;;;6.35;5.75;;;;;;;24.51;100.00;97631.37;18565665;32;20056;-57
2023/09/15 14:32:51;;;;;;;5.85;5.25;;;;;;;24.41;100.00;97613.41;18565217;32;20049;-57
2023/09/15 14:42:55;;;;;;;5.97;4.90;;;;;;;24.39;100.00;97595.59;18564603;32;20115;-57
2023/09/15 14:52:58;;;;;;;6.03;5.10;;;;;;;24.41;100.00;97596.03;18549539;32;20041;-57
2023/09/15 15:03:03;;;;;;;6.87;4.75;;;;;;;24.27;100.00;97599.28;18563567;32;20052;-57
2023/09/15 15:13:06;;;;;;;6.05;5.12;;;;;;;24.26;100.00;97581.12;18562555;32;20087;-57
2023/09/15 15:23:10;;;;;;;5.85;5.03;;;;;;;24.01;100.00;97564.84;18562315;32;20108;-57
2023/09/15 15:33:16;;;;;;;5.07;3.78;;;;;;;23.88;100.00;97560.56;18561087;32;20057;-57
2023/09/15 15:43:20;;;;;;;5.68;4.68;;;;;;;23.66;100.00;97568.34;18547663;32;20093;-57
2023/09/15 15:53:23;;;;;;;4.85;4.35;;;;;;;23.49;100.00;97556.56;18560864;32;20168;-57
2023/09/15 16:03:26;;;;;;;4.72;4.20;;;;;;;23.28;100.00;97556.03;18560370;32;20056;-57
2023/09/15 16:13:30;;;;;;;4.97;4.45;;;;;;;22.96;100.00;97558.78;18545926;32;20416;-57
2023/09/15 16:23:36;;;;;;;5.50;4.20;;;;;;;22.76;100.00;97552.34;18560151;32;20068;-57
2023/09/15 16:33:40;;;;;;;4.53;3.97;;;;;;;22.50;100.00;97561.87;18559390;32;20057;-57
2023/09/15 16:43:43;;;;;;;4.87;3.90;;;;;;;22.16;100.00;97547.53;18552741;32;20056;-57
2023/09/15 16:53:46;;;;;;;4.75;4.22;;;;;;;21.84;100.00;97555.66;18571210;31;20055;-57
2023/09/15 17:03:49;;;;;;;5.40;3.92;;;;;;;21.53;100.00;97537.81;18570839;32;20485;-57
2023/09/15 17:13:54;;;;;;;4.78;3.87;;;;;;;21.22;100.00;97533.66;18569996;32;20048;-57
2023/09/15 17:23:56;;;;;;;4.87;3.92;;;;;;;20.92;100.00;97525.63;18569815;32;20060;-57
2023/09/15 17:34:02;;;;;;;4.05;3.62;;;;;;;20.63;100.00;97526.59;18569084;32;20053;-57
2023/09/15 17:44:05;;;;;;;5.05;3.97;;;;;;;20.36;100.00;97528.00;18568306;32;20060;-56
2023/09/15 17:54:11;;;;;;;6.47;4.57;;;;;;;20.07;100.00;97536.00;18567066;32;20052;-56
2023/09/15 18:04:15;;;;;;;5.40;4.43;;;;;;;19.83;100.00;97542.19;18567435;32;20068;-57
2023/09/15 18:14:17;;;;;;;;;;;;;;;19.58;100.00;97542.00;18566806;32;20414;-57
2023/09/15 18:24:20;;;;;;;8.07;4.60;;;;;;;19.32;100.00;97550.34;18552497;32;19963;-56
2023/09/15 18:34:25;;;;;;;6.60;4.50;;;;;;;19.11;100.00;97547.56;18565353;32;20357;-57
2023/09/15 18:44:29;;;;;;;;;;;;;;;18.90;100.00;97547.47;18550102;31;20052;-57
2023/09/15 18:54:32;;;;;;;5.10;3.90;;;;;;;18.72;100.00;97541.19;18550688;32;19943;-57
2023/09/15 19:04:35;;;;;;;8.40;5.57;;;;;;;18.51;100.00;97543.84;18549412;32;20052;-57
2023/09/15 19:14:38;;;;;;;14.43;7.80;;;;;;;18.30;100.00;97552.72;18562766;32;20375;-57
2023/09/15 19:24:41;;;;;;;11.55;7.40;;;;;;;18.09;100.00;97566.28;18562355;32;20068;-57
2023/09/15 19:34:47;;;;;;;13.40;8.05;;;;;;;17.92;100.00;97573.34;18547627;32;20085;-57
2023/09/15 19:44:50;;;;;;;10.90;7.37;;;;;;;17.75;100.00;97578.75;18546778;32;20049;-57
2023/09/15 19:54:57;;;;;;;8.52;4.90;;;;;;;17.59;100.00;97576.47;18560963;32;20112;-57
2023/09/15 20:04:59;;;;;;;5.57;4.57;;;;;;;17.43;100.00;97570.66;18560660;32;20369;-57
2023/09/15 20:15:09;;;;;;;7.37;4.47;;;;;;;17.28;100.00;97580.09;18549783;32;20437;-57
2023/09/15 20:25:12;;;;;;;9.43;4.50;;;;;;;17.17;100.00;97576.03;18559512;32;20361;-57
2023/09/15 20:35:15;;;;;;;6.30;4.60;;;;;;;17.05;100.00;97571.16;18572585;31;20079;-56
2023/09/15 20:45:17;;;;;;;4.85;3.85;;;;;;;16.97;100.00;97562.94;18571955;32;20044;-56
2023/09/15 20:55:21;;;;;;;5.93;4.20;;;;;;;16.86;100.00;97554.97;18557929;32;20075;-56
2023/09/15 21:05:23;;;;;;;4.93;4.18;;;;;;;16.79;100.00;97562.81;18556968;32;20106;-56
2023/09/15 21:15:26;;;;;;;7.15;4.22;;;;;;;16.68;100.00;97570.47;18556204;32;20100;-56
2023/09/15 21:25:34;;;;;;;4.90;4.03;;;;;;;16.62;100.00;97577.16;18568497;32;20053;-56
2023/09/15 21:35:40;;;;;;;4.62;3.90;;;;;;;16.54;100.00;97576.00;18569202;32;20085;-56
2023/09/15 21:45:42;;;;;;;6.70;4.57;;;;;;;16.42;100.00;97565.62;18568330;31;20048;-57
2023/09/15 21:55:45;;;;;;;4.55;3.53;;;;;;;16.35;100.00;97572.63;18568067;32;20064;-56
2023/09/15 22:05:47;;;;;;;7.43;4.15;;;;;;;16.24;100.00;97578.34;18567203;32;20053;-57
2023/09/15 22:15:50;;;;;;;4.97;3.58;;;;;;;16.17;100.00;97575.25;18552555;32;20104;-56
2023/09/15 22:25:53;;;;;;;8.30;4.22;;;;;;;16.08;100.00;97574.38;18565915;32;20109;-57
2023/09/15 22:35:55;;;;;;;5.12;3.62;;;;;;;16.01;100.00;97574.00;18565145;31;20048;-56
2023/09/15 22:45:58;;;;;;;4.95;3.90;;;;;;;15.89;100.00;97575.34;18564596;32;20114;-57
2023/09/15 22:56:00;;;;;;;5.87;4.15;;;;;;;15.81;100.00;97565.16;18564182;32;20337;-57
2023/09/15 23:06:03;;;;;;;4.60;4.10;;;;;;;15.75;100.00;97560.91;18563525;32;20080;-56
2023/09/15 23:16:08;;;;;;;5.47;4.20;;;;;;;15.70;100.00;97574.66;18535682;32;20413;-56
2023/09/15 23:26:10;;;;;;;6.78;4.30;;;;;;;15.62;100.00;97578.88;18548188;32;20053;-57
2023/09/15 23:36:13;;;;;;;7.72;4.43;;;;;;;15.55;100.00;97578.50;18561846;32;20061;-57
2023/09/15 23:46:15;;;;;;;6.68;4.35;;;;;;;15.47;100.00;97574.59;18546793;32;20455;-57
2023/09/15 23:56:17;;;;;;;6.82;4.22;;;;;;;15.41;100.00;97584.75;18560561;32;20071;-57
